Egmondgracht — PDWG — position and weather

sailwx.info

Track history (hours):
 
Tides and Currents Weather Stations Pressure Air Temp Water Temp Dewpoint Dewpoint Depression Visibility Wind Speed Wind Dir Waves Ship Positions

Egmondgracht

Last reported at 2017-Apr-25 23:44 UTC. Time now 2017-Apr-26 11:49 UTC.
Position N 36°10' E 034°29'.

Length 136 m; beam 19 m; draft 9 m.

Type: Cargo ship. MMSI: 245716000.

Date/timePositionNaut miles runAvg speedWind from/ knotsBaromVisibWave heightAir tempDewpointWater temp
2017-Apr-25 23:44N 36°10' E 034°29'314.3
2017-Apr-25 23:30N 36°11' E 034°33'914.4
2017-Apr-25 22:54N 36°14' E 034°43'614.5
2017-Apr-25 22:30N 36°15' E 034°50'714.3
2017-Apr-25 22:00N 36°16' E 034°59'714.0
2017-Apr-25 21:30N 36°18' E 035°07'714.3
2017-Apr-25 21:00N 36°20' E 035°15'714.3
2017-Apr-25 20:30N 36°23' E 035°24'714.2
2017-Apr-25 20:00N 36°25' E 035°32'  
2017-Apr-20 20:15N 35°55' E 014°56'413.5
2017-Apr-20 19:57N 35°55' E 014°51'613.3
2017-Apr-20 19:30N 35°55' E 014°43'713.7
2017-Apr-20 19:00N 35°55' E 014°35'3 0.7
2017-Apr-20 15:05N 35°54' E 014°31'1 9.0
2017-Apr-20 15:00N 35°54' E 014°32'611.2
2017-Apr-20 14:30N 35°59' E 014°28'1413.6
2017-Apr-20 13:30N 36°08' E 014°16'714.0
2017-Apr-20 13:00N 36°12' E 014°08'714.1
2017-Apr-20 12:30N 36°15' E 014°01'714.4
2017-Apr-20 12:00N 36°18' E 013°53'714.3
2017-Apr-20 11:30N 36°22' E 013°45'49613.6
2017-Apr-18 23:09N 38°52' E 003°49'213.8
2017-Apr-18 23:00N 38°53' E 003°46'713.8
2017-Apr-18 22:29N 38°55' E 003°38'713.6
2017-Apr-18 22:00N 38°57' E 003°30'713.5
2017-Apr-18 21:30N 38°59' E 003°21'713.3
2017-Apr-18 21:00N 39°01' E 003°13'713.2
2017-Apr-18 20:30N 39°03' E 003°05'713.3
2017-Apr-18 20:00N 39°05' E 002°57'612.0
2017-Apr-18 19:30N 39°08' E 002°50'613.0
2017-Apr-18 19:00N 39°14' E 002°47'612.8
2017-Apr-18 18:30N 39°20' E 002°44'713.2
2017-Apr-18 18:00N 39°26' E 002°41'713.1
2017-Apr-18 17:30N 39°33' E 002°39'1 1.6
2017-Apr-18 16:59N 39°33' E 002°38'0 0.0
2017-Apr-18 16:29N 39°33' E 002°38'0 0.0
2017-Apr-18 15:59N 39°33' E 002°38'0 0.0
2017-Apr-18 15:29N 39°33' E 002°38'0 0.0
2017-Apr-18 14:59N 39°33' E 002°38'0 0.0
2017-Apr-18 14:29N 39°33' E 002°38'0 0.0
2017-Apr-18 13:29N 39°33' E 002°38'0 0.0
2017-Apr-18 12:59N 39°33' E 002°38'0 0.0
2017-Apr-18 12:29N 39°33' E 002°38'0 0.0
2017-Apr-18 11:59N 39°33' E 002°38'0 0.0
2017-Apr-18 11:23N 39°33' E 002°38'0 0.0
2017-Apr-18 10:59N 39°33' E 002°38'0 0.0
2017-Apr-18 10:29N 39°33' E 002°38'0 0.0
2017-Apr-18 09:59N 39°33' E 002°38'0 0.0
2017-Apr-18 09:29N 39°33' E 002°38'0 0.0
2017-Apr-18 08:59N 39°33' E 002°38'0 0.0
2017-Apr-18 08:29N 39°33' E 002°38'0 0.0
2017-Apr-18 07:59N 39°33' E 002°38'0 0.0
2017-Apr-18 07:29N 39°33' E 002°38'0 0.0
2017-Apr-18 06:59N 39°33' E 002°38'0 0.1
2017-Apr-18 06:30N 39°33' E 002°38'1 2.6
2017-Apr-18 06:00N 39°32' E 002°39'5 9.3
2017-Apr-18 05:30N 39°28' E 002°35'612.2
2017-Apr-18 05:00N 39°24' E 002°30'612.4
2017-Apr-18 04:30N 39°19' E 002°25'612.7
2017-Apr-18 04:00N 39°14' E 002°20'612.7
2017-Apr-18 03:30N 39°09' E 002°15'612.7
2017-Apr-18 03:00N 39°04' E 002°09'612.9
2017-Apr-18 02:30N 38°59' E 002°04'612.9
2017-Apr-18 02:00N 38°54' E 001°59'713.1
2017-Apr-18 01:30N 38°49' E 001°53'713.0
2017-Apr-18 01:00N 38°45' E 001°48'713.1
2017-Apr-18 00:30N 38°40' E 001°42'713.3
2017-Apr-17 23:58N 38°35' E 001°35'1013.2
2017-Apr-17 23:14N 38°29' E 001°26'313.2
2017-Apr-17 22:59N 38°27' E 001°22'713.4
2017-Apr-17 22:30N 38°23' E 001°16'713.6
2017-Apr-17 21:59N 38°19' E 001°08'814.5
2017-Apr-17 21:26N 38°14' E 001°00'714.5
2017-Apr-17 20:59N 38°10' E 000°54'714.4
2017-Apr-17 20:30N 38°06' E 000°47'714.3
2017-Apr-17 20:00N 38°02' E 000°39'714.4
2017-Apr-17 19:30N 37°57' E 000°32'914.2
2017-Apr-17 18:53N 37°52' E 000°23'514.0
2017-Apr-17 18:30N 37°49' E 000°17'713.9
2017-Apr-17 17:59N 37°45' E 000°10'813.7
2017-Apr-17 17:23N 37°40' E 000°02'513.5
2017-Apr-17 17:00N 37°37' W 000°03'813.5
2017-Apr-17 16:24N 37°32' W 000°12'613.5
2017-Apr-17 16:00N 37°29' W 000°17'713.8
2017-Apr-17 15:30N 37°25' W 000°24'1214.1
2017-Apr-17 14:40N 37°18' W 000°36'1013.5
2017-Apr-17 13:54N 37°12' W 000°47'21213.3
2017-Apr-16 21:54N 36°04' W 004°57'615.0
2017-Apr-16 21:29N 36°04' W 005°05'715.0
2017-Apr-16 21:00N 36°04' W 005°14'714.1
2017-Apr-16 20:31N 36°06' W 005°22'2 4.8
2017-Apr-16 20:00N 36°09' W 005°22'0 0.1
2017-Apr-16 19:30N 36°09' W 005°22'0 0.0
2017-Apr-16 19:00N 36°09' W 005°22'0 0.0
2017-Apr-16 18:30N 36°09' W 005°22'0 0.0
2017-Apr-16 18:00N 36°09' W 005°22'0 0.0
2017-Apr-16 17:30N 36°09' W 005°22'0 0.0
2017-Apr-16 17:00N 36°09' W 005°22'0 0.1
2017-Apr-16 16:31N 36°09' W 005°22'0 0.7
2017-Apr-16 15:59N 36°08' W 005°22'0 0.0
2017-Apr-16 15:29N 36°08' W 005°22'0 0.0
2017-Apr-16 14:59N 36°08' W 005°22'0 0.0
2017-Apr-16 14:29N 36°08' W 005°22'0 0.0
2017-Apr-16 13:29N 36°08' W 005°22'0 0.0
2017-Apr-16 12:59N 36°08' W 005°22'0 0.0
2017-Apr-16 12:29N 36°08' W 005°22'0 0.0
2017-Apr-16 11:59N 36°08' W 005°22'0 0.0
2017-Apr-16 11:29N 36°08' W 005°22'0 0.0
2017-Apr-16 10:59N 36°08' W 005°22'0 0.0
2017-Apr-16 10:29N 36°08' W 005°22'0 0.0
2017-Apr-16 09:59N 36°08' W 005°22'0 0.0
2017-Apr-16 09:29N 36°08' W 005°22'0 0.3
2017-Apr-16 09:00N 36°08' W 005°22'2 4.2
2017-Apr-16 08:30N 36°06' W 005°22'713.2
2017-Apr-16 08:00N 36°00' W 005°24'714.0
2017-Apr-16 07:30N 35°57' W 005°32'6714.4
2017-Apr-16 02:50N 36°03' W 006°55'513.6
2017-Apr-16 02:28N 36°04' W 007°01'613.5
2017-Apr-16 02:00N 36°06' W 007°08'713.7
2017-Apr-16 01:30N 36°08' W 007°17'713.9
2017-Apr-16 01:00N 36°09' W 007°25'713.7
2017-Apr-16 00:30N 36°11' W 007°33'713.8
2017-Apr-16 00:01N 36°13' W 007°41'  
Track history (hours):
 
Tides and Currents Weather Stations Pressure Air Temp Water Temp Dewpoint Dewpoint Depression Visibility Wind Speed Wind Dir Waves Ship Positions

Egmondgracht

Last reported at 2017-Apr-25 23:44 UTC. Time now 2017-Apr-26 11:49 UTC.
Position N 36°10' E 034°29'.

Length 136 m; beam 19 m; draft 9 m.

Type: Cargo ship. MMSI: 245716000.

Date/timePositionNaut miles runAvg speedWind from/ knotsBaromVisibWave heightAir tempDewpointWater temp
2017-Apr-25 23:44N 36°10' E 034°29'314.3
2017-Apr-25 23:30N 36°11' E 034°33'914.4
2017-Apr-25 22:54N 36°14' E 034°43'614.5
2017-Apr-25 22:30N 36°15' E 034°50'714.3
2017-Apr-25 22:00N 36°16' E 034°59'714.0
2017-Apr-25 21:30N 36°18' E 035°07'714.3
2017-Apr-25 21:00N 36°20' E 035°15'714.3
2017-Apr-25 20:30N 36°23' E 035°24'714.2
2017-Apr-25 20:00N 36°25' E 035°32'  
2017-Apr-20 20:15N 35°55' E 014°56'413.5
2017-Apr-20 19:57N 35°55' E 014°51'613.3
2017-Apr-20 19:30N 35°55' E 014°43'713.7
2017-Apr-20 19:00N 35°55' E 014°35'3 0.7
2017-Apr-20 15:05N 35°54' E 014°31'1 9.0
2017-Apr-20 15:00N 35°54' E 014°32'611.2
2017-Apr-20 14:30N 35°59' E 014°28'1413.6
2017-Apr-20 13:30N 36°08' E 014°16'714.0
2017-Apr-20 13:00N 36°12' E 014°08'714.1
2017-Apr-20 12:30N 36°15' E 014°01'714.4
2017-Apr-20 12:00N 36°18' E 013°53'714.3
2017-Apr-20 11:30N 36°22' E 013°45'49613.6
2017-Apr-18 23:09N 38°52' E 003°49'213.8
2017-Apr-18 23:00N 38°53' E 003°46'713.8
2017-Apr-18 22:29N 38°55' E 003°38'713.6
2017-Apr-18 22:00N 38°57' E 003°30'713.5
2017-Apr-18 21:30N 38°59' E 003°21'713.3
2017-Apr-18 21:00N 39°01' E 003°13'713.2
2017-Apr-18 20:30N 39°03' E 003°05'713.3
2017-Apr-18 20:00N 39°05' E 002°57'612.0
2017-Apr-18 19:30N 39°08' E 002°50'613.0
2017-Apr-18 19:00N 39°14' E 002°47'612.8
2017-Apr-18 18:30N 39°20' E 002°44'713.2
2017-Apr-18 18:00N 39°26' E 002°41'713.1
2017-Apr-18 17:30N 39°33' E 002°39'1 1.6
2017-Apr-18 16:59N 39°33' E 002°38'0 0.0
2017-Apr-18 16:29N 39°33' E 002°38'0 0.0
2017-Apr-18 15:59N 39°33' E 002°38'0 0.0
2017-Apr-18 15:29N 39°33' E 002°38'0 0.0
2017-Apr-18 14:59N 39°33' E 002°38'0 0.0
2017-Apr-18 14:29N 39°33' E 002°38'0 0.0
2017-Apr-18 13:29N 39°33' E 002°38'0 0.0
2017-Apr-18 12:59N 39°33' E 002°38'0 0.0
2017-Apr-18 12:29N 39°33' E 002°38'0 0.0
2017-Apr-18 11:59N 39°33' E 002°38'0 0.0
2017-Apr-18 11:23N 39°33' E 002°38'0 0.0
2017-Apr-18 10:59N 39°33' E 002°38'0 0.0
2017-Apr-18 10:29N 39°33' E 002°38'0 0.0
2017-Apr-18 09:59N 39°33' E 002°38'0 0.0
2017-Apr-18 09:29N 39°33' E 002°38'0 0.0
2017-Apr-18 08:59N 39°33' E 002°38'0 0.0
2017-Apr-18 08:29N 39°33' E 002°38'0 0.0
2017-Apr-18 07:59N 39°33' E 002°38'0 0.0
2017-Apr-18 07:29N 39°33' E 002°38'0 0.0
2017-Apr-18 06:59N 39°33' E 002°38'0 0.1
2017-Apr-18 06:30N 39°33' E 002°38'1 2.6
2017-Apr-18 06:00N 39°32' E 002°39'5 9.3
2017-Apr-18 05:30N 39°28' E 002°35'612.2
2017-Apr-18 05:00N 39°24' E 002°30'612.4
2017-Apr-18 04:30N 39°19' E 002°25'612.7
2017-Apr-18 04:00N 39°14' E 002°20'612.7
2017-Apr-18 03:30N 39°09' E 002°15'612.7
2017-Apr-18 03:00N 39°04' E 002°09'612.9
2017-Apr-18 02:30N 38°59' E 002°04'612.9
2017-Apr-18 02:00N 38°54' E 001°59'713.1
2017-Apr-18 01:30N 38°49' E 001°53'713.0
2017-Apr-18 01:00N 38°45' E 001°48'713.1
2017-Apr-18 00:30N 38°40' E 001°42'713.3
2017-Apr-17 23:58N 38°35' E 001°35'1013.2
2017-Apr-17 23:14N 38°29' E 001°26'313.2
2017-Apr-17 22:59N 38°27' E 001°22'713.4
2017-Apr-17 22:30N 38°23' E 001°16'713.6
2017-Apr-17 21:59N 38°19' E 001°08'814.5
2017-Apr-17 21:26N 38°14' E 001°00'714.5
2017-Apr-17 20:59N 38°10' E 000°54'714.4
2017-Apr-17 20:30N 38°06' E 000°47'714.3
2017-Apr-17 20:00N 38°02' E 000°39'714.4
2017-Apr-17 19:30N 37°57' E 000°32'914.2
2017-Apr-17 18:53N 37°52' E 000°23'514.0
2017-Apr-17 18:30N 37°49' E 000°17'713.9
2017-Apr-17 17:59N 37°45' E 000°10'813.7
2017-Apr-17 17:23N 37°40' E 000°02'513.5
2017-Apr-17 17:00N 37°37' W 000°03'813.5
2017-Apr-17 16:24N 37°32' W 000°12'613.5
2017-Apr-17 16:00N 37°29' W 000°17'713.8
2017-Apr-17 15:30N 37°25' W 000°24'1214.1
2017-Apr-17 14:40N 37°18' W 000°36'1013.5
2017-Apr-17 13:54N 37°12' W 000°47'21213.3
2017-Apr-16 21:54N 36°04' W 004°57'615.0
2017-Apr-16 21:29N 36°04' W 005°05'715.0
2017-Apr-16 21:00N 36°04' W 005°14'714.1
2017-Apr-16 20:31N 36°06' W 005°22'2 4.8
2017-Apr-16 20:00N 36°09' W 005°22'0 0.1
2017-Apr-16 19:30N 36°09' W 005°22'0 0.0
2017-Apr-16 19:00N 36°09' W 005°22'0 0.0
2017-Apr-16 18:30N 36°09' W 005°22'0 0.0
2017-Apr-16 18:00N 36°09' W 005°22'0 0.0
2017-Apr-16 17:30N 36°09' W 005°22'0 0.0
2017-Apr-16 17:00N 36°09' W 005°22'0 0.1
2017-Apr-16 16:31N 36°09' W 005°22'0 0.7
2017-Apr-16 15:59N 36°08' W 005°22'0 0.0
2017-Apr-16 15:29N 36°08' W 005°22'0 0.0
2017-Apr-16 14:59N 36°08' W 005°22'0 0.0
2017-Apr-16 14:29N 36°08' W 005°22'0 0.0
2017-Apr-16 13:29N 36°08' W 005°22'0 0.0
2017-Apr-16 12:59N 36°08' W 005°22'0 0.0
2017-Apr-16 12:29N 36°08' W 005°22'0 0.0
2017-Apr-16 11:59N 36°08' W 005°22'0 0.0
2017-Apr-16 11:29N 36°08' W 005°22'0 0.0
2017-Apr-16 10:59N 36°08' W 005°22'0 0.0
2017-Apr-16 10:29N 36°08' W 005°22'0 0.0
2017-Apr-16 09:59N 36°08' W 005°22'0 0.0
2017-Apr-16 09:29N 36°08' W 005°22'0 0.3
2017-Apr-16 09:00N 36°08' W 005°22'2 4.2
2017-Apr-16 08:30N 36°06' W 005°22'713.2
2017-Apr-16 08:00N 36°00' W 005°24'714.0
2017-Apr-16 07:30N 35°57' W 005°32'6714.4
2017-Apr-16 02:50N 36°03' W 006°55'513.6
2017-Apr-16 02:28N 36°04' W 007°01'613.5
2017-Apr-16 02:00N 36°06' W 007°08'713.7
2017-Apr-16 01:30N 36°08' W 007°17'713.9
2017-Apr-16 01:00N 36°09' W 007°25'713.7
2017-Apr-16 00:30N 36°11' W 007°33'713.8
2017-Apr-16 00:01N 36°13' W 007°41'  

Dump ship's entire track history